Time;durP1;ratioP1;P1;durP2;ratioP2;P2;SDS_P1;SDS_P2;PMS_P1;PMS_P2;Temp;Humidity;BMP_temperature;BMP_pressure;BME280_temperature;BME280_humidity;BME280_pressure;Samples;Min_cycle;Max_cycle;Signal;HPM_P1;HPM_P2
2023/03/05 00:04:43;;;;;;;;;;;;;;;4.31;85.10;102112.00;21010940;28;20061;-58
2023/03/05 00:15:04;;;;;;;;;;;;;;;4.14;85.51;102103.16;21013700;28;19931;-58
2023/03/05 00:25:26;;;;;;;;;;;;;;;4.01;86.44;102091.84;21012121;28;19935;-60
2023/03/05 00:35:47;;;;;;;;;;;;;;;3.94;87.23;102081.47;20988962;28;19928;-59
2023/03/05 00:46:09;;;;;;;;;;;;;;;4.02;87.24;102077.38;21009716;28;19938;-58
2023/03/05 00:56:30;;;;;;;;;;;;;;;4.02;87.89;102062.88;21003168;28;20011;-59
2023/03/05 01:06:52;;;;;;;;;;;;;;;4.01;88.83;102057.72;21003114;28;20375;-58
2023/03/05 01:17:13;;;;;;;;;;;;;;;4.01;87.22;102050.06;21022044;28;19935;-59
2023/03/05 01:27:34;;;;;;;;;;;;;;;3.98;86.95;102027.81;21004830;28;19928;-57
2023/03/05 01:37:56;;;;;;;;;;;;;;;3.89;87.46;102032.78;21012978;28;19978;-57
2023/03/05 01:48:17;;;;;;;;;;;;;;;3.83;88.49;102016.44;21032294;28;19928;-58
2023/03/05 01:58:39;;;;;;;;;;;;;;;3.86;87.89;101999.44;21022615;28;19924;-60
2023/03/05 02:09:00;;;;;;;;;;;;;;;3.87;87.69;101985.81;21005353;28;19924;-57
2023/03/05 02:19:22;;;;;;;;;;;;;;;3.81;87.47;101975.47;21004193;28;19928;-58
2023/03/05 02:29:45;;;;;;;;;;;;;;;3.76;87.97;101955.75;21035394;28;20395;-58
2023/03/05 02:40:06;;;;;;;;;;;;;;;3.74;88.04;101942.06;21016671;28;19964;-58
2023/03/05 02:50:29;;;;;;;;;;;;;;;3.80;88.29;101942.19;21007442;28;19925;-58
2023/03/05 03:00:50;;;;;;;;;;;;;;;3.84;87.73;101926.91;21017845;28;20547;-59
2023/03/05 03:11:12;;;;;;;;;;;;;;;3.82;88.61;101912.34;21011371;28;19924;-59
2023/03/05 03:21:33;;;;;;;;;;;;;;;3.81;88.48;101913.16;21033697;28;19985;-58
2023/03/05 03:31:55;;;;;;;;;;;;;;;3.87;88.25;101887.66;21024551;28;19931;-59
2023/03/05 03:42:18;;;;;;;;;;;;;;;3.82;88.98;101879.94;21008112;28;19928;-59
2023/03/05 03:52:39;;;;;;;;;;;;;;;3.79;88.79;101868.81;21002156;28;20084;-59
2023/03/05 04:03:01;;;;;;;;;;;;;;;3.71;88.42;101858.47;21012492;28;19928;-59
2023/03/05 04:13:22;;;;;;;;;;;;;;;3.70;87.79;101843.09;21017768;28;19932;-59
2023/03/05 04:23:44;;;;;;;;;;;;;;;3.61;88.45;101842.94;21011248;28;19981;-57
2023/03/05 04:34:05;;;;;;;;;;;;;;;3.60;88.91;101820.75;21016512;28;19928;-58
2023/03/05 04:44:27;;;;;;;;;;;;;;;3.61;88.96;101813.09;21008791;28;19947;-58
2023/03/05 04:54:48;;;;;;;;;;;;;;;3.65;89.16;101814.00;21004253;28;19993;-60
2023/03/05 05:05:14;;;;;;;;;;;;;;;3.66;89.71;101805.50;21007892;28;20412;-59
2023/03/05 05:15:38;;;;;;;;;;;;;;;3.67;88.85;101817.44;21009963;28;19932;-59
2023/03/05 05:26:07;;;;;;;;;;;;;;;3.67;87.99;101812.31;21005342;28;19984;-59
2023/03/05 05:36:28;;;;;;;;;;;;;;;3.61;88.40;101807.09;21002260;28;20275;-58
2023/03/05 05:46:50;;;;;;;;;;;;;;;3.54;88.74;101795.06;21005982;28;20454;-57
2023/03/05 05:57:11;;;;;;;;;;;;;;;3.44;88.67;101773.66;20997839;28;19970;-59
2023/03/05 06:07:33;;;;;;;;;;;;;;;3.35;89.07;101772.66;21012779;28;19924;-59
2023/03/05 06:17:55;;;;;;;;;;;;;;;3.32;89.83;101777.69;21008262;28;19924;-58
2023/03/05 06:28:16;;;;;;;;;;;;;;;3.31;88.92;101786.22;21023652;28;19932;-58
2023/03/05 06:38:38;;;;;;;;;;;;;;;3.30;88.67;101784.47;21022231;28;19993;-59
2023/03/05 06:49:00;;;;;;;;;;;;;;;3.38;89.25;101793.13;21013950;28;20445;-59
2023/03/05 06:59:22;;;;;;;;;;;;;;;3.47;88.75;101783.03;21020685;28;19932;-58
2023/03/05 07:09:44;;;;;;;;;;;;;;;3.54;88.78;101785.72;21015716;28;19986;-59
2023/03/05 07:20:06;;;;;;;;;;;;;;;3.75;87.41;101780.03;21013552;28;19931;-59
2023/03/05 07:30:28;;;;;;;;;;;;;;;3.84;87.49;101765.66;21024401;28;19924;-59
2023/03/05 07:40:49;;;;;;;;;;;;;;;3.84;87.80;101770.78;21024939;28;20019;-58
2023/03/05 07:51:13;;;;;;;;;;;;;;;3.91;88.22;101764.88;21015235;28;20379;-58
2023/03/05 08:01:35;;;;;;;;;;;;;;;3.99;88.95;101770.09;21019049;28;20575;-59
2023/03/05 08:11:56;;;;;;;;;;;;;;;4.05;88.09;101759.91;21002430;28;19924;-59
2023/03/05 08:22:19;;;;;;;;;;;;;;;4.17;87.52;101749.81;21012186;28;19985;-59
2023/03/05 08:32:40;;;;;;;;;;;;;;;4.28;87.59;101737.97;21009298;28;19925;-59
2023/03/05 08:43:04;;;;;;;;;;;;;;;4.60;86.95;101730.56;21013692;28;20007;-58
2023/03/05 08:53:26;;;;;;;;;;;;;;;4.79;84.98;101717.94;21011457;28;19925;-59
2023/03/05 09:03:47;;;;;;;;;;;;;;;4.94;84.96;101707.78;21004328;28;19970;-59
2023/03/05 09:14:09;;;;;;;;;;;;;;;5.09;83.92;101713.00;20994763;28;19978;-60
2023/03/05 09:24:30;;;;;;;;;;;;;;;5.12;83.54;101701.94;21014001;28;19978;-59
2023/03/05 09:34:52;;;;;;;;;;;;;;;5.24;82.43;101691.72;21006812;28;19933;-60
2023/03/05 09:45:13;;;;;;;;;;;;;;;5.32;81.47;101671.25;21006135;28;19986;-59
2023/03/05 09:55:39;;;;;;;;;;;;;;;5.53;80.40;101666.22;21005070;28;19948;-59
2023/03/05 10:06:15;;;;;;;;;;;;;;;5.76;76.86;101662.00;21016155;28;19930;-60
2023/03/05 10:16:40;;;;;;;;;;;;;;;5.94;78.22;101662.09;21031433;28;19928;-59
2023/03/05 10:27:06;;;;;;;;;;;;;;;6.12;77.31;101630.44;21025326;28;19963;-58
2023/03/05 10:37:28;;;;;;;;;;;;;;;6.25;76.09;101617.59;21016474;28;20326;-60
2023/03/05 10:47:52;;;;;;;;;;;;;;;6.44;74.49;101603.03;21016930;28;19964;-59
2023/03/05 10:58:15;;;;;;;;;;;;;;;6.68;74.27;101591.03;21007921;28;20379;-59
2023/03/05 11:08:37;;;;;;;;;;;;;;;6.94;73.28;101586.63;21001727;28;20516;-59
2023/03/05 11:19:14;;;;;;;;;;;;;;;6.79;74.76;101571.25;21020112;28;20333;-58
2023/03/05 11:29:45;;;;;;;;;;;;;;;6.53;75.88;101573.03;20999747;28;19951;-60
2023/03/05 11:40:16;;;;;;;;;;;;;;;6.41;76.17;101567.91;21009951;28;19953;-60
2023/03/05 11:50:40;;;;;;;;;;;;;;;6.71;75.51;101544.72;21002046;28;20018;-60
2023/03/05 12:01:05;;;;;;;;;;;;;;;7.07;73.24;101505.97;21007004;28;20406;-60
2023/03/05 12:11:28;;;;;;;;;;;;;;;7.24;71.16;101492.16;21011041;28;19928;-58
2023/03/05 12:21:51;;;;;;;;;;;;;;;6.88;75.67;101514.66;21013049;28;19924;-60
2023/03/05 12:32:21;;;;;;;;;;;;;;;6.37;80.93;101494.25;21009586;28;20376;-58
2023/03/05 12:42:46;;;;;;;;;;;;;;;6.39;80.51;101460.84;21012856;28;19924;-60
2023/03/05 12:53:15;;;;;;;;;;;;;;;6.76;77.78;101434.09;21010317;28;19935;-58
2023/03/05 13:03:49;;;;;;;;;;;;;;;7.16;76.15;101427.03;20999083;28;19924;-59
2023/03/05 13:14:29;;;;;;;;;;;;;;;6.84;79.37;101442.66;21012545;28;20140;-59
2023/03/05 13:25:23;;;;;;;;;;;;;;;6.19;84.01;101412.03;20998794;28;19990;-59
2023/03/05 13:35:46;;;;;;;;;;;;;;;6.40;83.06;101401.72;21012545;28;19932;-59
2023/03/05 13:46:07;;;;;;;;;;;;;;;6.58;83.17;101391.34;21010220;28;19931;-60
2023/03/05 13:56:29;;;;;;;;;;;;;;;6.86;85.11;101372.34;21018593;28;19924;-59
2023/03/05 14:06:58;;;;;;;;;;;;;;;7.08;80.83;101368.75;21020366;28;19942;-58
2023/03/05 14:17:26;;;;;;;;;;;;;;;7.04;80.13;101376.50;21000390;28;19925;-58
2023/03/05 14:27:47;;;;;;;;;;;;;;;6.66;83.13;101345.91;21023414;28;20299;-60
2023/03/05 14:38:18;;;;;;;;;;;;;;;6.73;82.57;101326.13;21014401;28;19930;-59
2023/03/05 14:48:40;;;;;;;;;;;;;;;6.72;83.33;101314.97;21018537;28;19994;-57
2023/03/05 14:59:01;;;;;;;;;;;;;;;6.67;82.32;101298.72;21027203;28;19970;-58
2023/03/05 15:09:23;;;;;;;;;;;;;;;6.76;79.12;101279.81;21002040;28;19924;-60
2023/03/05 15:19:45;;;;;;;;;;;;;;;6.71;78.07;101277.28;21011430;28;20338;-60
2023/03/05 15:30:08;;;;;;;;;;;;;;;6.70;80.10;101257.56;21015743;28;19940;-60
2023/03/05 15:40:30;;;;;;;;;;;;;;;6.70;78.78;101251.59;21021070;28;20004;-60
2023/03/05 15:50:51;;;;;;;;;;;;;;;6.70;78.47;101226.72;21012762;28;19981;-59
2023/03/05 16:01:14;;;;;;;;;;;;;;;6.73;79.23;101223.28;21017821;28;19924;-60
2023/03/05 16:11:37;;;;;;;;;;;;;;;6.39;79.98;101225.22;21018746;28;19931;-59
2023/03/05 16:21:58;;;;;;;;;;;;;;;6.04;82.88;101216.91;21014500;28;19943;-58
2023/03/05 16:32:20;;;;;;;;;;;;;;;5.96;83.40;101203.22;21002541;28;19924;-59
2023/03/05 16:42:41;;;;;;;;;;;;;;;6.00;82.92;101194.66;20999981;28;19925;-60
2023/03/05 16:53:03;;;;;;;;;;;;;;;6.05;82.60;101182.63;21014935;28;20016;-59
2023/03/05 17:03:25;;;;;;;;;;;;;;;6.05;80.20;101180.06;21002039;28;19977;-58
2023/03/05 17:13:46;;;;;;;;;;;;;;;5.97;81.25;101174.97;21013784;28;19928;-60
2023/03/05 17:24:11;;;;;;;;;;;;;;;5.98;79.05;101173.25;21008825;28;20375;-58
2023/03/05 17:34:33;;;;;;;;;;;;;;;5.89;80.06;101170.75;21008848;28;19981;-60
2023/03/05 17:44:58;;;;;;;;;;;;;;;5.66;81.27;101162.28;21009151;28;20429;-58
2023/03/05 17:55:21;;;;;;;;;;;;;;;5.56;80.79;101150.34;21007457;28;19924;-59
2023/03/05 18:05:43;;;;;;;;;;;;;;;5.47;81.69;101142.69;21015307;28;19928;-59
2023/03/05 18:16:05;;;;;;;;;;;;;;;5.43;80.92;101130.72;21004510;28;19928;-57
2023/03/05 18:26:26;;;;;;;;;;;;;;;5.37;81.04;101123.03;21018573;28;19924;-58
2023/03/05 18:36:48;;;;;;;;;;;;;;;5.31;81.19;101102.56;21026999;28;19981;-58
2023/03/05 18:47:09;;;;;;;;;;;;;;;5.26;82.33;101099.16;21017224;28;19977;-60
2023/03/05 18:57:30;;;;;;;;;;;;;;;5.27;82.29;101098.31;21017083;28;20415;-60
2023/03/05 19:07:52;;;;;;;;;;;;;;;5.30;82.06;101077.75;21015835;28;20316;-59
2023/03/05 19:18:14;;;;;;;;;;;;;;;5.26;81.45;101063.25;21033657;28;19985;-60
2023/03/05 19:28:35;;;;;;;;;;;;;;;5.26;81.48;101058.13;20998438;28;19988;-59
2023/03/05 19:38:57;;;;;;;;;;;;;;;5.24;81.48;101057.28;21001616;28;20276;-60
2023/03/05 19:49:18;;;;;;;;;;;;;;;5.30;80.70;101049.53;21027830;28;19935;-60
2023/03/05 19:59:40;;;;;;;;;;;;;;;5.27;80.38;101023.91;21004551;28;20434;-58
2023/03/05 20:10:01;;;;;;;;;;;;;;;5.24;80.58;101009.38;21015868;28;19989;-59
2023/03/05 20:20:23;;;;;;;;;;;;;;;5.27;79.82;101003.41;21002144;28;19930;-59
2023/03/05 20:30:44;;;;;;;;;;;;;;;5.28;80.62;100992.25;21008809;28;19986;-60
2023/03/05 20:41:07;;;;;;;;;;;;;;;5.23;80.41;100981.19;20987781;28;19931;-60
2023/03/05 20:51:34;;;;;;;;;;;;;;;5.27;80.46;100977.75;20998595;28;19939;-60
2023/03/05 21:01:56;;;;;;;;;;;;;;;5.24;79.98;100975.22;21009878;28;19932;-58
2023/03/05 21:12:17;;;;;;;;;;;;;;;5.24;79.35;100962.38;21005465;28;20586;-59
2023/03/05 21:22:38;;;;;;;;;;;;;;;5.19;80.33;100939.31;21003774;28;20291;-59
2023/03/05 21:33:01;;;;;;;;;;;;;;;5.15;79.99;100931.69;20990738;28;20028;-60
2023/03/05 21:43:23;;;;;;;;;;;;;;;5.15;80.19;100917.13;21009041;28;19924;-58
2023/03/05 21:53:45;;;;;;;;;;;;;;;5.15;79.84;100911.16;21000390;28;19940;-58
2023/03/05 22:04:06;;;;;;;;;;;;;;;5.10;80.19;100904.34;21026441;28;19985;-60
2023/03/05 22:14:28;;;;;;;;;;;;;;;5.11;81.21;100908.59;21020450;28;19925;-60
2023/03/05 22:24:49;;;;;;;;;;;;;;;5.10;82.00;100883.81;21017694;28;19928;-58
2023/03/05 22:35:11;;;;;;;;;;;;;;;5.13;80.75;100878.66;21008838;28;19969;-60
2023/03/05 22:45:33;;;;;;;;;;;;;;;5.19;80.79;100867.50;21021955;28;19978;-59
2023/03/05 22:55:54;;;;;;;;;;;;;;;5.13;82.65;100858.16;21012195;28;20260;-60
2023/03/05 23:06:16;;;;;;;;;;;;;;;5.09;85.02;100850.50;21005432;28;19928;-60
2023/03/05 23:16:37;;;;;;;;;;;;;;;4.94;86.85;100856.56;21020142;28;20343;-60
2023/03/05 23:26:59;;;;;;;;;;;;;;;4.88;87.42;100851.50;21023546;28;19981;-60
2023/03/05 23:37:20;;;;;;;;;;;;;;;4.72;88.67;100854.19;21007499;28;19936;-58
2023/03/05 23:47:42;;;;;;;;;;;;;;;4.22;87.80;100859.53;21001418;28;20310;-59
2023/03/05 23:58:04;;;;;;;;;;;;;;;4.01;89.19;100859.63;21012338;28;19973;-59
